Time;durP1;ratioP1;P1;durP2;ratioP2;P2;SDS_P1;SDS_P2;PMS_P1;PMS_P2;Temp;Humidity;BMP_temperature;BMP_pressure;BME280_temperature;BME280_humidity;BME280_pressure;Samples;Min_cycle;Max_cycle;Signal;HPM_P1;HPM_P2
2021/12/06 00:02:29;;;;;;;36.90;22.60;;;;;;;8.54;73.89;93656.47;5091902;28;20185;-79
2021/12/06 00:04:55;;;;;;;34.80;23.17;;;;;;;8.52;74.04;93655.84;5091597;28;20197;-78
2021/12/06 00:07:25;;;;;;;32.53;22.17;;;;;;;8.50;74.01;93663.63;5092047;28;20189;-79
2021/12/06 00:09:52;;;;;;;40.93;25.43;;;;;;;8.49;74.01;93656.16;5091482;28;20200;-79
2021/12/06 00:12:20;;;;;;;39.53;24.30;;;;;;;8.47;74.02;93638.47;5091300;28;20189;-80
2021/12/06 00:14:48;;;;;;;40.63;25.63;;;;;;;8.45;74.11;93658.19;5091099;28;20189;-80
2021/12/06 00:17:17;;;;;;;40.77;25.07;;;;;;;8.43;74.09;93646.56;5091466;28;20196;-80
2021/12/06 00:19:45;;;;;;;43.03;27.50;;;;;;;8.30;73.91;93645.19;5089859;28;20217;-81
2021/12/06 00:22:15;;;;;;;39.47;24.60;;;;;;;8.42;74.31;93657.69;5091574;28;20182;-80
2021/12/06 00:24:42;;;;;;;40.27;24.97;;;;;;;8.40;74.25;93665.47;5091242;28;20221;-80
2021/12/06 00:27:09;;;;;;;39.90;26.93;;;;;;;8.40;74.13;93667.22;5091389;28;20189;-80
2021/12/06 00:29:37;;;;;;;43.83;25.47;;;;;;;8.23;74.29;93669.63;5091389;28;20206;-80
2021/12/06 00:32:06;;;;;;;42.47;25.87;;;;;;;8.18;74.18;93663.41;5091601;28;20193;-80
2021/12/06 00:34:35;;;;;;;40.03;26.17;;;;;;;8.39;74.31;93696.22;5091200;28;20186;-79
2021/12/06 00:37:17;;;;;;;41.07;26.43;;;;;;;8.11;74.43;93650.44;5091796;28;20274;-79
2021/12/06 00:39:45;;;;;;;37.73;25.47;;;;;;;8.32;74.40;93675.59;5090966;28;20312;-79
2021/12/06 00:42:12;;;;;;;38.23;26.43;;;;;;;8.38;74.44;93681.88;5091143;28;20186;-79
2021/12/06 00:44:39;;;;;;;39.07;23.97;;;;;;;8.41;74.54;93681.56;5090865;28;20193;-79
2021/12/06 00:47:07;;;;;;;39.50;24.80;;;;;;;8.41;74.45;93691.75;5090465;28;20189;-79
2021/12/06 00:49:34;;;;;;;40.53;24.60;;;;;;;8.41;74.59;93709.59;5090850;28;20190;-79
2021/12/06 00:52:01;;;;;;;40.67;22.83;;;;;;;8.42;74.61;93703.53;5091092;28;20196;-79
2021/12/06 00:54:29;;;;;;;37.77;23.57;;;;;;;8.43;74.69;93687.31;5090460;28;20194;-80
2021/12/06 00:56:56;;;;;;;35.03;23.70;;;;;;;8.44;74.59;93687.16;5090811;28;20280;-80
2021/12/06 00:59:23;;;;;;;36.93;23.13;;;;;;;8.38;74.75;93675.03;5090446;28;20225;-79
2021/12/06 01:01:51;;;;;;;36.80;23.63;;;;;;;8.45;74.74;93676.03;5090318;28;20198;-80
2021/12/06 01:04:19;;;;;;;36.63;22.40;;;;;;;8.45;74.60;93688.75;5090154;28;20246;-79
2021/12/06 01:06:46;;;;;;;35.87;23.03;;;;;;;8.45;74.68;93670.94;5090375;28;20185;-79
2021/12/06 01:09:13;;;;;;;37.90;23.17;;;;;;;8.45;74.61;93682.88;5090569;28;20194;-79
2021/12/06 01:11:40;;;;;;;31.80;21.90;;;;;;;8.44;74.84;93673.63;5089315;28;20193;-80
2021/12/06 01:14:06;;;;;;;38.00;21.63;;;;;;;8.45;74.86;93670.13;5090473;28;20251;-80
2021/12/06 01:16:34;;;;;;;33.17;20.63;;;;;;;8.45;74.61;93677.78;5089904;28;20193;-79
2021/12/06 01:19:00;;;;;;;37.47;21.67;;;;;;;8.07;74.84;93612.72;5090745;28;20245;-80
2021/12/06 01:21:41;;;;;;;32.17;21.67;;;;;;;8.40;74.75;93668.03;5090412;28;20299;-77
2021/12/06 01:24:09;;;;;;;31.03;20.67;;;;;;;8.41;74.71;93671.38;5090301;28;20675;-79
2021/12/06 01:26:57;;;;;;;35.57;20.83;;;;;;;8.49;74.47;93664.59;5090218;28;20186;-79
2021/12/06 01:32:17;;;;;;;32.37;20.30;;;;;;;8.50;74.44;93670.47;5047528;28;20268;-79
2021/12/06 01:40:18;;;;;;;38.33;22.93;;;;;;;8.52;74.49;93648.22;5047572;28;20285;-78
2021/12/06 01:42:48;;;;;;;34.43;24.20;;;;;;;8.51;74.48;93652.50;5047657;28;20187;-78
2021/12/06 01:45:15;;;;;;;33.60;21.97;;;;;;;8.52;74.59;93648.22;5047450;28;20191;-79
2021/12/06 01:47:44;;;;;;;30.93;20.67;;;;;;;8.09;74.46;93593.00;5047853;28;20206;-78
2021/12/06 01:50:16;;;;;;;32.10;20.67;;;;;;;8.45;74.51;93634.47;5047482;28;20316;-78
2021/12/06 01:52:46;;;;;;;28.17;20.23;;;;;;;8.50;74.52;93629.72;5050440;28;20202;-78
2021/12/06 01:55:16;;;;;;;31.60;19.27;;;;;;;8.49;74.38;93626.38;5048972;28;20198;-79
2021/12/06 01:57:43;;;;;;;30.03;20.70;;;;;;;8.46;74.50;93624.13;5047440;28;20203;-79
2021/12/06 02:00:13;;;;;;;30.57;19.90;;;;;;;8.46;74.34;93615.69;5047022;28;20229;-79
2021/12/06 02:02:40;;;;;;;33.13;18.60;;;;;;;8.46;74.32;93613.13;5045620;28;20190;-79
2021/12/06 02:05:08;;;;;;;28.30;18.57;;;;;;;8.17;74.39;93576.03;5047413;28;20186;-78
2021/12/06 02:07:35;;;;;;;28.47;18.73;;;;;;;8.44;74.42;93615.84;5047054;28;20182;-79
2021/12/06 02:10:05;;;;;;;25.97;17.60;;;;;;;8.44;74.53;93625.22;5080795;28;20220;-77
2021/12/06 02:12:32;;;;;;;30.40;18.10;;;;;;;8.32;74.36;93606.03;5089824;28;20193;-79
2021/12/06 02:15:05;;;;;;;29.23;17.83;;;;;;;8.45;74.57;93626.81;5092313;28;20609;-79
2021/12/06 02:17:37;;;;;;;28.33;17.83;;;;;;;8.44;74.34;93636.22;5093811;28;20194;-79
2021/12/06 02:20:09;;;;;;;28.33;17.83;;;;;;;8.40;74.42;93634.91;5093917;28;20310;-78
2021/12/06 02:22:39;;;;;;;28.77;18.77;;;;;;;8.45;74.36;93637.00;5093492;28;20185;-79
2021/12/06 02:25:09;;;;;;;26.63;17.73;;;;;;;8.45;74.32;93645.44;5093505;28;20225;-79
2021/12/06 02:27:36;;;;;;;25.77;17.03;;;;;;;8.38;74.47;93631.75;5093321;28;20314;-80
2021/12/06 02:30:05;;;;;;;26.40;17.63;;;;;;;8.46;74.44;93633.50;5093231;28;20189;-79
2021/12/06 02:32:34;;;;;;;28.17;17.23;;;;;;;8.37;74.11;93614.03;5094312;28;20186;-80
2021/12/06 02:35:03;;;;;;;26.27;16.20;;;;;;;8.47;74.38;93625.72;5093777;28;20234;-80
2021/12/06 02:37:33;;;;;;;27.30;17.70;;;;;;;8.46;74.32;93618.22;5093667;28;20580;-79
2021/12/06 02:40:05;;;;;;;24.53;17.13;;;;;;;8.46;74.31;93616.50;5093587;28;20232;-80
2021/12/06 02:42:32;;;;;;;25.73;17.37;;;;;;;8.47;74.33;93615.53;5095188;28;20549;-79
2021/12/06 02:44:59;;;;;;;27.77;18.30;;;;;;;8.46;74.27;93615.69;5093475;28;20186;-79
2021/12/06 02:47:26;;;;;;;26.87;17.47;;;;;;;8.47;74.42;93614.75;5093394;28;20190;-78
2021/12/06 02:49:53;;;;;;;25.57;16.70;;;;;;;8.49;74.46;93617.94;5093366;28;20186;-78
2021/12/06 02:52:20;;;;;;;25.80;16.63;;;;;;;8.49;74.28;93623.81;5093291;28;20197;-80
2021/12/06 02:54:55;;;;;;;24.40;17.67;;;;;;;8.29;74.44;93585.00;5091686;28;20200;-77
2021/12/06 02:57:33;;;;;;;25.77;16.83;;;;;;;8.54;74.61;93613.97;5092969;28;20672;-79
2021/12/06 03:00:00;;;;;;;24.90;17.37;;;;;;;8.44;74.70;93589.56;5092864;28;20221;-80
2021/12/06 03:02:30;;;;;;;24.47;15.73;;;;;;;8.54;74.50;93605.53;5092607;28;20193;-78
2021/12/06 03:04:58;;;;;;;25.27;16.40;;;;;;;8.50;74.54;93589.75;5093215;28;20227;-76
2021/12/06 03:07:28;;;;;;;26.37;17.37;;;;;;;8.08;74.54;93527.75;5093163;28;20406;-80
2021/12/06 03:09:56;;;;;;;23.57;16.93;;;;;;;8.71;74.57;93616.59;5093190;28;20770;-76
2021/12/06 03:12:27;;;;;;;25.07;15.83;;;;;;;8.74;74.54;93616.31;5092448;28;20193;-78
2021/12/06 03:14:56;;;;;;;25.40;17.03;;;;;;;8.76;74.44;93605.00;5092765;28;20189;-78
2021/12/06 03:17:27;;;;;;;24.67;15.87;;;;;;;8.80;74.62;93615.69;5092840;28;20195;-78
2021/12/06 03:19:54;;;;;;;25.27;17.27;;;;;;;8.82;74.58;93608.69;5091863;28;20220;-79
2021/12/06 03:22:21;;;;;;;25.23;16.50;;;;;;;8.85;74.49;93612.66;5091631;28;20197;-78
2021/12/06 03:24:48;;;;;;;23.73;17.40;;;;;;;8.87;74.51;93615.88;5097716;28;20232;-77
2021/12/06 03:27:17;;;;;;;23.73;16.13;;;;;;;8.88;74.52;93617.47;5107024;28;20194;-77
2021/12/06 03:29:45;;;;;;;23.13;15.90;;;;;;;8.90;74.48;93611.28;5101576;28;20318;-77
2021/12/06 03:32:13;;;;;;;27.33;17.30;;;;;;;8.93;74.45;93610.16;5092318;28;20185;-79
2021/12/06 03:34:40;;;;;;;23.93;16.67;;;;;;;8.93;74.57;93600.75;5092748;28;20185;-80
2021/12/06 03:37:08;;;;;;;23.60;16.63;;;;;;;8.96;74.55;93594.53;5092271;28;20743;-77
2021/12/06 03:39:41;;;;;;;24.07;15.83;;;;;;;8.97;74.38;93588.50;5092263;28;20586;-79
2021/12/06 03:42:11;;;;;;;26.40;16.30;;;;;;;8.98;74.47;93588.34;5092305;28;20216;-78
2021/12/06 03:44:38;;;;;;;21.80;16.10;;;;;;;8.99;74.41;93589.16;5092307;28;20185;-78
2021/12/06 03:47:10;;;;;;;25.53;18.50;;;;;;;8.99;74.46;93600.13;5091991;28;20205;-78
2021/12/06 03:49:38;;;;;;;27.43;18.77;;;;;;;9.00;74.45;93594.09;5092176;28;20281;-78
2021/12/06 03:52:06;;;;;;;25.17;18.50;;;;;;;9.01;74.34;93616.06;5092017;28;20197;-78
2021/12/06 03:54:34;;;;;;;26.97;18.37;;;;;;;9.03;74.37;93601.44;5092006;28;20192;-78
2021/12/06 03:57:01;;;;;;;29.73;19.10;;;;;;;9.03;74.24;93598.09;5091660;28;20204;-80
2021/12/06 03:59:29;;;;;;;28.17;18.10;;;;;;;8.97;74.44;93585.94;5090547;28;20225;-79
2021/12/06 04:01:56;;;;;;;30.37;18.60;;;;;;;8.78;74.36;93558.97;5090626;28;20204;-78
2021/12/06 04:04:24;;;;;;;24.87;16.80;;;;;;;9.05;74.53;93586.75;5091938;28;20682;-79
2021/12/06 04:06:52;;;;;;;26.57;17.30;;;;;;;9.07;74.41;93590.91;5091858;28;20204;-80
2021/12/06 04:09:19;;;;;;;24.33;16.23;;;;;;;8.74;74.48;93537.28;5091671;28;20562;-79
2021/12/06 04:11:46;;;;;;;24.10;15.93;;;;;;;9.09;74.44;93589.00;5091679;28;20200;-79
2021/12/06 04:14:15;;;;;;;23.50;17.23;;;;;;;9.09;74.42;93604.31;5090395;28;20304;-78
2021/12/06 04:16:43;;;;;;;28.33;17.10;;;;;;;9.09;74.43;93596.66;5094497;28;20200;-78
2021/12/06 04:19:11;;;;;;;22.00;16.70;;;;;;;9.00;74.56;93593.28;5092073;28;20196;-77
2021/12/06 04:21:42;;;;;;;18.00;13.47;;;;;;;9.08;74.58;93603.50;5091273;28;20197;-79
2021/12/06 04:24:10;;;;;;;19.90;13.93;;;;;;;9.03;74.97;93567.50;5091288;28;20700;-78
2021/12/06 04:26:37;;;;;;;18.80;13.93;;;;;;;8.92;75.17;93560.91;5091243;28;20189;-78
2021/12/06 04:29:05;;;;;;;21.30;14.00;;;;;;;9.07;75.34;93573.03;5091341;28;20217;-79
2021/12/06 04:31:34;;;;;;;20.60;14.23;;;;;;;9.14;75.17;93602.09;5091060;28;20258;-78
2021/12/06 04:34:01;;;;;;;20.87;14.67;;;;;;;9.16;75.10;93600.19;5090859;28;20194;-78
2021/12/06 04:36:28;;;;;;;23.60;14.67;;;;;;;9.16;74.96;93598.44;5090959;28;20189;-78
2021/12/06 04:38:57;;;;;;;24.37;15.10;;;;;;;8.84;75.11;93539.69;5090837;28;20584;-78
2021/12/06 04:41:24;;;;;;;21.70;14.67;;;;;;;9.01;74.86;93577.03;5091381;28;20216;-78
2021/12/06 04:43:51;;;;;;;21.93;15.90;;;;;;;9.19;74.82;93597.31;5090837;28;20182;-79
2021/12/06 04:46:18;;;;;;;21.27;15.07;;;;;;;9.20;74.50;93604.03;5090697;28;20201;-79
2021/12/06 04:48:44;;;;;;;22.50;15.37;;;;;;;9.20;74.45;93607.38;5090570;28;20190;-79
2021/12/06 04:51:12;;;;;;;27.17;16.43;;;;;;;9.01;74.38;93562.53;5090860;28;20555;-78
2021/12/06 04:53:40;;;;;;;22.93;15.67;;;;;;;9.24;74.39;93602.72;5090570;28;20193;-79
2021/12/06 04:56:14;;;;;;;27.30;16.87;;;;;;;9.25;74.58;93599.25;5091349;28;20197;-79
2021/12/06 04:58:47;;;;;;;25.73;16.60;;;;;;;9.01;74.25;93564.28;5090982;28;20185;-78
2021/12/06 05:01:20;;;;;;;21.67;15.37;;;;;;;9.26;74.45;93596.53;5090254;28;20704;-79
2021/12/06 05:03:48;;;;;;;26.03;16.17;;;;;;;9.26;74.42;93603.38;5090320;28;20181;-78
2021/12/06 05:06:22;;;;;;;26.00;16.97;;;;;;;8.99;74.72;93554.25;5089003;28;20197;-78
2021/12/06 05:08:52;;;;;;;23.33;16.07;;;;;;;9.26;74.73;93590.63;5089157;28;20186;-79
2021/12/06 05:11:23;;;;;;;28.17;16.47;;;;;;;9.23;74.58;93583.28;5090606;28;20185;-77
2021/12/06 05:13:52;;;;;;;23.37;15.47;;;;;;;9.28;74.82;93588.72;5090711;28;20272;-79
2021/12/06 05:16:21;;;;;;;25.53;16.23;;;;;;;9.28;74.86;93606.56;5090174;28;20177;-80
2021/12/06 05:18:48;;;;;;;25.17;16.50;;;;;;;9.01;74.81;93582.13;5089861;28;20190;-78
2021/12/06 05:21:16;;;;;;;22.80;15.83;;;;;;;9.23;74.83;93596.84;5090071;28;20217;-80
2021/12/06 05:23:43;;;;;;;22.23;15.70;;;;;;;9.30;75.09;93623.31;5090170;28;20240;-79
2021/12/06 05:26:10;;;;;;;24.20;16.93;;;;;;;9.25;75.09;93602.59;5090513;28;20194;-80
2021/12/06 05:28:42;;;;;;;22.73;15.33;;;;;;;9.33;75.28;93629.09;5090454;28;20204;-79
2021/12/06 05:31:15;;;;;;;18.60;14.47;;;;;;;9.35;75.28;93612.66;5090137;28;20200;-79
2021/12/06 05:33:43;;;;;;;24.60;15.90;;;;;;;9.09;75.24;93584.69;5089957;28;20200;-79
2021/12/06 05:36:11;;;;;;;27.57;16.80;;;;;;;9.31;75.33;93590.97;5089930;28;20193;-79
2021/12/06 05:38:38;;;;;;;25.03;16.00;;;;;;;9.19;75.58;93575.16;5088983;28;20572;-79
2021/12/06 05:41:06;;;;;;;21.27;14.73;;;;;;;9.39;75.64;93608.03;5090023;28;20222;-78
2021/12/06 05:43:34;;;;;;;19.97;14.53;;;;;;;9.39;75.57;93602.94;5090329;28;20585;-79
2021/12/06 05:46:03;;;;;;;20.47;13.27;;;;;;;8.92;75.63;93544.81;5090509;28;20624;-80
2021/12/06 05:48:30;;;;;;;21.70;14.80;;;;;;;9.38;75.73;93602.13;5088154;28;20216;-82
2021/12/06 05:50:57;;;;;;;20.80;15.43;;;;;;;9.06;75.84;93549.31;5087975;28;20185;-81
2021/12/06 05:53:24;;;;;;;21.17;14.73;;;;;;;9.39;75.81;93613.94;5088697;28;20335;-81
2021/12/06 05:55:52;;;;;;;18.93;13.67;;;;;;;9.41;75.78;93595.91;5087931;28;20899;-77
2021/12/06 05:58:24;;;;;;;19.27;12.33;;;;;;;9.42;75.86;93602.63;5088278;28;20182;-81
2021/12/06 06:00:52;;;;;;;21.37;13.40;;;;;;;9.43;75.69;93607.56;5088173;28;20773;-76
2021/12/06 06:03:20;;;;;;;19.80;13.80;;;;;;;9.39;75.80;93592.72;5088077;28;20300;-78
2021/12/06 06:05:47;;;;;;;20.53;13.87;;;;;;;9.36;75.49;93590.47;5088084;28;20571;-82
2021/12/06 06:08:14;;;;;;;22.80;14.10;;;;;;;9.52;75.67;93632.13;5088242;28;20216;-82
2021/12/06 06:10:41;;;;;;;17.50;12.43;;;;;;;9.23;75.44;93575.63;5088308;28;20189;-82
2021/12/06 06:13:11;;;;;;;16.37;13.00;;;;;;;9.60;75.37;93636.47;5087567;28;20198;-81
2021/12/06 06:15:40;;;;;;;19.33;13.27;;;;;;;9.67;75.52;93628.94;5088291;28;20202;-82
2021/12/06 06:18:08;;;;;;;20.60;14.10;;;;;;;9.59;75.45;93600.91;5087371;28;20680;-79
2021/12/06 06:20:41;;;;;;;9.90;6.57;;;;;;;10.33;100.00;93602.47;5087889;28;20235;-79
2021/12/06 06:23:08;;;;;;;25.93;16.20;;;;;;;11.38;100.00;93610.69;5087570;28;20340;-84
2021/12/06 06:25:35;;;;;;;20.77;15.37;;;;;;;11.80;100.00;93602.56;5070037;28;20186;-82
2021/12/06 06:28:04;;;;;;;17.27;13.20;;;;;;;12.07;100.00;93595.31;5086795;28;20193;-86
2021/12/06 06:30:31;;;;;;;17.87;12.97;;;;;;;12.09;100.00;93590.84;5088149;28;20567;-79
2021/12/06 06:32:58;;;;;;;18.83;12.17;;;;;;;12.14;100.00;93619.28;5087540;28;20557;-80
2021/12/06 06:35:25;;;;;;;21.30;13.13;;;;;;;12.34;100.00;93642.63;5088097;28;20487;-80
2021/12/06 06:37:54;;;;;;;18.87;13.47;;;;;;;12.37;98.71;93655.13;5087460;28;20197;-79
2021/12/06 06:40:21;;;;;;;18.63;13.20;;;;;;;11.71;95.09;93560.06;5087566;28;20715;-80
2021/12/06 06:42:48;;;;;;;18.93;13.43;;;;;;;12.46;91.29;93650.72;5087855;28;20186;-83
2021/12/06 06:45:18;;;;;;;17.13;13.17;;;;;;;12.49;88.33;93638.34;5087828;28;20237;-79
2021/12/06 06:47:46;;;;;;;20.47;13.03;;;;;;;12.54;85.88;93646.31;5087408;28;20196;-78
2021/12/06 06:50:13;;;;;;;18.17;13.83;;;;;;;12.66;83.23;93653.59;5087228;28;20189;-78
2021/12/06 06:52:41;;;;;;;17.93;13.67;;;;;;;12.62;80.84;93624.13;5087514;28;20182;-82
2021/12/06 06:55:11;;;;;;;17.63;13.70;;;;;;;13.01;79.59;93675.97;5085459;28;20247;-77
2021/12/06 06:57:38;;;;;;;19.20;13.27;;;;;;;13.13;79.13;93668.63;5075674;28;20225;-77
2021/12/06 07:00:07;;;;;;;20.00;13.73;;;;;;;13.29;78.17;93665.88;5085410;28;20225;-80
2021/12/06 07:02:34;;;;;;;17.47;13.00;;;;;;;13.44;77.41;93660.72;5090625;28;20223;-81
2021/12/06 07:05:00;;;;;;;19.20;12.83;;;;;;;13.55;76.21;93656.88;5087719;28;20695;-78
2021/12/06 07:07:27;;;;;;;16.73;12.67;;;;;;;13.73;75.35;93644.44;5089965;28;20208;-79
2021/12/06 07:09:54;;;;;;;19.63;13.47;;;;;;;13.90;74.12;93646.75;5089802;28;20197;-79
2021/12/06 07:12:22;;;;;;;13.97;11.33;;;;;;;14.07;73.11;93655.81;5090109;28;20193;-79
2021/12/06 07:14:50;;;;;;;16.17;11.57;;;;;;;14.32;71.67;93651.88;5089892;28;20194;-77
2021/12/06 07:17:20;;;;;;;14.40;11.50;;;;;;;14.69;70.93;93642.28;5096747;28;20193;-79
2021/12/06 07:19:46;;;;;;;13.17;11.70;;;;;;;15.04;70.45;93631.97;5110127;28;20194;-81
2021/12/06 07:22:13;;;;;;;16.03;12.20;;;;;;;15.23;69.64;93643.34;5103942;28;20218;-79
2021/12/06 07:24:41;;;;;;;14.63;11.17;;;;;;;15.27;69.17;93622.16;5089107;28;20677;-78
2021/12/06 07:27:08;;;;;;;15.40;11.43;;;;;;;15.26;68.51;93636.03;5089583;28;20198;-80
2021/12/06 07:29:37;;;;;;;14.63;11.07;;;;;;;15.23;67.64;93630.47;5088976;28;20249;-79
2021/12/06 07:32:06;;;;;;;15.67;10.97;;;;;;;15.18;67.07;93656.78;5091646;28;20190;-79
2021/12/06 07:34:34;;;;;;;14.07;10.87;;;;;;;15.01;66.43;93632.34;5091592;28;20228;-78
2021/12/06 07:37:02;;;;;;;12.67;10.27;;;;;;;15.03;65.92;93656.94;5091620;28;20217;-81
2021/12/06 07:39:29;;;;;;;11.00;9.30;;;;;;;14.95;65.50;93651.94;5091093;28;20182;-80
2021/12/06 07:41:56;;;;;;;11.97;9.77;;;;;;;14.88;65.37;93643.38;5090865;28;20242;-84
2021/12/06 07:44:23;;;;;;;12.60;10.03;;;;;;;14.48;64.98;93627.69;5091674;28;20189;-79
2021/12/06 07:46:52;;;;;;;10.53;8.87;;;;;;;14.71;64.75;93675.53;5090988;28;20649;-80
2021/12/06 07:49:19;;;;;;;12.40;9.40;;;;;;;13.96;64.71;93569.72;5091397;28;20198;-79
2021/12/06 07:51:46;;;;;;;12.70;8.97;;;;;;;14.32;64.58;93646.72;5090773;28;20197;-80
2021/12/06 07:54:13;;;;;;;11.03;8.97;;;;;;;14.31;64.60;93652.84;5089142;28;20205;-80
2021/12/06 07:56:40;;;;;;;11.70;8.33;;;;;;;14.20;64.60;93637.91;5090694;28;20217;-78
2021/12/06 07:59:07;;;;;;;10.77;8.53;;;;;;;13.98;64.79;93623.50;5090955;28;20189;-79
2021/12/06 08:01:34;;;;;;;11.30;8.83;;;;;;;13.98;65.04;93624.28;5091069;28;20266;-80
2021/12/06 08:04:03;;;;;;;12.20;9.10;;;;;;;13.59;65.25;93569.97;5090695;28;20196;-79
2021/12/06 08:06:30;;;;;;;11.37;8.50;;;;;;;13.81;65.10;93631.44;5090559;28;20220;-79
2021/12/06 08:08:57;;;;;;;10.50;8.60;;;;;;;13.76;65.27;93641.50;5090790;28;20193;-79
2021/12/06 08:11:25;;;;;;;10.57;8.30;;;;;;;13.71;65.38;93651.53;5090081;28;20653;-80
2021/12/06 08:13:55;;;;;;;9.67;8.03;;;;;;;13.53;65.38;93633.94;5090973;28;20192;-78
2021/12/06 08:16:25;;;;;;;11.07;8.40;;;;;;;13.58;65.64;93655.72;5090506;28;20194;-80
2021/12/06 08:18:52;;;;;;;9.13;8.13;;;;;;;13.50;65.74;93648.91;5088838;28;20200;-78
2021/12/06 08:21:22;;;;;;;14.17;8.40;;;;;;;13.43;65.85;93654.00;5090481;28;20220;-77
2021/12/06 08:23:52;;;;;;;10.13;8.50;;;;;;;13.36;66.04;93653.13;5090235;28;20217;-78
2021/12/06 08:26:20;;;;;;;13.40;8.90;;;;;;;13.30;66.21;93652.09;5090208;28;20707;-79
2021/12/06 08:28:49;;;;;;;8.53;7.23;;;;;;;13.24;66.30;93649.41;5090884;28;20194;-78
2021/12/06 08:31:18;;;;;;;10.87;8.47;;;;;;;13.23;66.23;93643.50;5090983;28;20285;-79
2021/12/06 08:33:46;;;;;;;11.13;8.30;;;;;;;13.02;66.03;93595.44;5090190;28;20227;-78
2021/12/06 08:36:14;;;;;;;8.13;7.20;;;;;;;13.38;66.30;93633.19;5090532;28;20190;-79
2021/12/06 08:38:42;;;;;;;9.07;7.43;;;;;;;13.45;66.03;93628.13;5089815;28;20204;-78
2021/12/06 08:41:13;;;;;;;9.90;7.90;;;;;;;13.60;66.03;93630.66;5090529;28;20222;-78
2021/12/06 08:43:41;;;;;;;11.07;8.10;;;;;;;13.75;65.98;93621.91;5088788;28;20193;-78
2021/12/06 08:46:11;;;;;;;9.00;7.53;;;;;;;13.82;65.84;93632.28;5089932;28;20212;-78
2021/12/06 08:48:40;;;;;;;9.63;7.60;;;;;;;13.88;65.77;93631.53;5089692;28;20193;-80
2021/12/06 08:51:13;;;;;;;13.27;8.33;;;;;;;13.85;65.58;93623.38;5089944;28;20193;-78
2021/12/06 08:53:45;;;;;;;9.97;8.03;;;;;;;13.23;65.59;93506.63;5089521;28;20195;-79
2021/12/06 08:56:12;;;;;;;11.13;7.90;;;;;;;14.02;65.55;93635.78;5090112;28;20193;-80
2021/12/06 08:58:40;;;;;;;11.53;8.20;;;;;;;14.06;65.30;93639.59;5089434;28;20186;-79
2021/12/06 09:01:08;;;;;;;10.47;8.00;;;;;;;14.10;65.18;93624.59;5089702;28;20217;-79
2021/12/06 09:03:36;;;;;;;9.40;7.20;;;;;;;13.85;65.39;93577.13;5089451;28;20579;-79
2021/12/06 09:06:06;;;;;;;8.70;7.50;;;;;;;14.21;65.10;93623.31;5089968;28;20203;-79
2021/12/06 09:08:33;;;;;;;9.57;7.23;;;;;;;14.25;65.03;93627.09;5088108;28;20213;-78
2021/12/06 09:11:01;;;;;;;9.60;7.70;;;;;;;14.31;64.76;93621.22;5089011;28;20189;-80
2021/12/06 09:13:29;;;;;;;8.60;7.20;;;;;;;14.39;64.67;93626.22;5089364;28;20193;-79
2021/12/06 09:15:59;;;;;;;9.80;7.50;;;;;;;14.49;64.36;93605.31;5089408;28;20198;-78
2021/12/06 09:18:29;;;;;;;10.37;6.97;;;;;;;14.62;64.27;93618.28;5088700;28;20190;-78
2021/12/06 09:20:57;;;;;;;9.13;6.73;;;;;;;14.73;63.97;93622.13;5089422;28;20608;-79
2021/12/06 09:23:25;;;;;;;8.33;6.90;;;;;;;14.79;63.61;93616.19;5088497;28;20225;-81
2021/12/06 09:25:52;;;;;;;8.67;6.77;;;;;;;14.84;63.24;93608.69;5089335;28;20732;-80
2021/12/06 09:28:21;;;;;;;8.20;6.53;;;;;;;14.89;63.15;93598.63;5089520;28;20189;-79
2021/12/06 09:30:48;;;;;;;8.67;6.60;;;;;;;14.96;62.81;93611.53;5089374;28;20189;-79
2021/12/06 09:33:17;;;;;;;6.83;6.13;;;;;;;14.99;62.69;93613.72;5088386;28;20193;-78
2021/12/06 09:35:47;;;;;;;6.90;6.00;;;;;;;15.00;62.63;93618.69;5088889;28;20202;-79
2021/12/06 09:38:16;;;;;;;6.80;6.10;;;;;;;15.01;62.34;93602.25;5089761;28;20564;-79
2021/12/06 09:40:47;;;;;;;7.93;6.37;;;;;;;14.87;62.20;93561.19;5089681;28;20261;-81
2021/12/06 09:43:15;;;;;;;9.70;6.30;;;;;;;15.01;62.11;93598.88;5087096;28;20185;-78
2021/12/06 09:45:45;;;;;;;8.73;6.23;;;;;;;14.52;61.63;93526.00;5089244;28;20198;-78
2021/12/06 09:48:15;;;;;;;6.90;5.60;;;;;;;15.00;61.82;93598.09;5089300;28;20200;-79
2021/12/06 09:50:45;;;;;;;6.73;6.03;;;;;;;14.99;61.73;93586.22;5088834;28;20613;-79
2021/12/06 09:53:15;;;;;;;6.67;5.50;;;;;;;15.00;61.54;93577.50;5089082;28;20186;-79
2021/12/06 09:55:43;;;;;;;7.67;5.80;;;;;;;14.90;61.48;93564.19;5088959;28;20276;-80
2021/12/06 09:58:11;;;;;;;8.10;5.50;;;;;;;14.90;61.37;93543.59;5088104;28;20190;-79
2021/12/06 10:00:42;;;;;;;7.73;6.07;;;;;;;15.04;61.14;93576.13;5087878;28;20208;-78
2021/12/06 10:03:15;;;;;;;7.23;5.57;;;;;;;15.09;61.08;93554.94;5089484;28;20251;-79
2021/12/06 10:05:43;;;;;;;6.80;5.27;;;;;;;15.08;60.83;93542.28;5089251;28;20204;-80
2021/12/06 10:08:10;;;;;;;5.90;5.30;;;;;;;15.13;60.75;93543.28;5089138;28;20201;-79
2021/12/06 10:10:39;;;;;;;7.73;6.17;;;;;;;15.22;60.55;93554.97;5089104;28;20185;-78
2021/12/06 10:13:06;;;;;;;6.30;5.70;;;;;;;15.11;60.59;93523.84;5088764;28;20208;-78
2021/12/06 10:15:34;;;;;;;8.07;5.40;;;;;;;14.82;60.43;93482.00;5089148;28;20186;-79
2021/12/06 10:18:02;;;;;;;8.50;6.83;;;;;;;15.21;60.20;93534.59;5089312;28;20190;-78
2021/12/06 10:20:31;;;;;;;8.20;6.17;;;;;;;15.11;60.25;93513.53;5089069;28;20193;-79
2021/12/06 10:22:59;;;;;;;8.73;6.10;;;;;;;15.23;60.17;93530.03;5088737;28;20596;-78
2021/12/06 10:25:37;;;;;;;6.93;6.20;;;;;;;15.25;60.21;93546.88;5088837;28;20194;-79
2021/12/06 10:28:05;;;;;;;8.00;6.20;;;;;;;14.48;60.03;93401.31;5089022;28;20201;-80
2021/12/06 10:30:34;;;;;;;9.20;7.13;;;;;;;15.32;60.00;93516.75;5089056;28;20194;-79
2021/12/06 10:33:06;;;;;;;11.97;7.10;;;;;;;15.12;60.04;93461.88;5089107;28;20189;-79
2021/12/06 10:35:34;;;;;;;11.17;7.23;;;;;;;15.12;59.89;93461.06;5090367;28;20190;-79
2021/12/06 10:38:01;;;;;;;8.43;6.57;;;;;;;15.38;59.95;93506.69;5093362;28;20194;-80
2021/12/06 10:40:31;;;;;;;9.90;7.33;;;;;;;15.40;59.79;93499.53;5092594;28;20186;-80
2021/12/06 10:43:02;;;;;;;7.60;6.80;;;;;;;15.41;60.03;93494.19;5092615;28;20218;-79
2021/12/06 10:45:33;;;;;;;8.90;7.40;;;;;;;15.44;59.67;93500.75;5092691;28;20193;-79
2021/12/06 10:48:14;;;;;;;9.30;6.50;;;;;;;15.37;59.96;93494.78;5092314;28;20210;-79
2021/12/06 10:50:45;;;;;;;7.70;6.67;;;;;;;15.45;59.79;93502.31;5092411;28;20690;-78
2021/12/06 10:53:13;;;;;;;8.00;6.93;;;;;;;15.16;59.89;93468.22;5092907;28;20209;-78
2021/12/06 10:55:42;;;;;;;11.10;6.93;;;;;;;15.29;59.92;93493.19;5092362;28;20193;-78
2021/12/06 10:58:14;;;;;;;8.70;6.63;;;;;;;15.38;59.88;93514.41;5092240;28;20556;-78
2021/12/06 11:00:49;;;;;;;9.47;7.00;;;;;;;15.34;59.88;93520.94;5091159;28;20209;-79
2021/12/06 11:03:28;;;;;;;7.50;6.70;;;;;;;15.30;59.88;93516.19;5092402;28;20209;-79
2021/12/06 11:06:02;;;;;;;8.53;6.77;;;;;;;15.28;59.99;93517.34;5092476;28;20205;-78
2021/12/06 11:08:29;;;;;;;9.20;7.33;;;;;;;15.27;60.08;93511.41;5091055;28;20227;-78
2021/12/06 11:10:59;;;;;;;8.73;7.57;;;;;;;15.26;60.22;93514.97;5102835;28;20510;-80
2021/12/06 11:13:29;;;;;;;11.50;8.37;;;;;;;15.26;60.33;93524.50;5110375;28;20193;-80
2021/12/06 11:16:06;;;;;;;14.00;8.17;;;;;;;15.12;60.26;93508.22;5097824;28;20204;-78
2021/12/06 11:18:36;;;;;;;9.87;7.40;;;;;;;15.20;60.72;93517.56;5091938;28;20186;-78
2021/12/06 11:21:14;;;;;;;11.07;8.70;;;;;;;15.17;60.78;93520.50;5091428;28;20586;-81
2021/12/06 11:23:57;;;;;;;10.37;8.17;;;;;;;14.43;60.77;93398.50;5090917;28;20338;-76
2021/12/06 11:26:24;;;;;;;10.53;8.00;;;;;;;15.14;60.85;93500.28;5090285;28;20186;-80
2021/12/06 11:28:51;;;;;;;10.53;8.73;;;;;;;15.14;60.67;93497.72;5091001;28;20197;-76
2021/12/06 11:31:19;;;;;;;13.87;9.40;;;;;;;15.15;60.75;93504.44;5091443;28;20185;-82
2021/12/06 11:33:58;;;;;;;10.40;9.03;;;;;;;15.15;60.78;93489.78;5090907;28;20279;-77
2021/12/06 11:36:30;;;;;;;12.77;9.13;;;;;;;15.18;60.78;93493.75;5088916;28;20193;-77
2021/12/06 11:39:03;;;;;;;11.00;9.17;;;;;;;15.18;60.67;93491.19;5090813;28;20193;-81
2021/12/06 11:41:30;;;;;;;11.17;9.50;;;;;;;15.19;60.93;93495.34;5092081;28;20275;-79
2021/12/06 11:43:59;;;;;;;13.20;9.53;;;;;;;14.66;61.05;93395.63;5090334;28;20564;-79